Time;durP1;ratioP1;P1;durP2;ratioP2;P2;SDS_P1;SDS_P2;PMS_P1;PMS_P2;Temp;Humidity;BMP_temperature;BMP_pressure;BME280_temperature;BME280_humidity;BME280_pressure;Samples;Min_cycle;Max_cycle;Signal;HPM_P1;HPM_P2
2021/12/02 00:02:11;;;;;;;13.30;4.03;;;10.50;99.90;;;;;;6127532;23;20004;-85
2021/12/02 00:04:38;;;;;;;8.60;3.92;;;10.50;99.90;;;;;;6127307;23;20338;-84
2021/12/02 00:07:06;;;;;;;7.78;3.50;;;10.50;99.90;;;;;;6127585;23;20016;-85
2021/12/02 00:09:33;;;;;;;8.70;3.88;;;10.50;99.90;;;;;;6127683;23;20010;-85
2021/12/02 00:12:00;;;;;;;8.85;4.25;;;10.50;99.90;;;;;;6127681;23;20033;-86
2021/12/02 00:14:27;;;;;;;7.72;3.83;;;10.60;99.90;;;;;;6127541;23;20010;-85
2021/12/02 00:22:11;;;;;;;14.50;4.03;;;10.60;99.90;;;;;;6129534;23;20053;-87
2021/12/02 00:24:39;;;;;;;10.63;3.60;;;10.50;99.90;;;;;;6131607;23;20041;-87
2021/12/02 00:27:09;;;;;;;13.65;4.15;;;10.50;99.90;;;;;;6103257;23;20014;-88
2021/12/02 00:29:36;;;;;;;8.77;3.83;;;10.50;99.90;;;;;;6105084;23;20016;-88
2021/12/02 00:32:08;;;;;;;13.10;5.53;;;10.50;99.90;;;;;;6137428;23;20085;-88
2021/12/02 00:34:41;;;;;;;13.82;4.18;;;10.50;99.90;;;;;;6134675;23;20010;-87
2021/12/02 00:37:08;;;;;;;7.80;3.50;;;10.50;99.90;;;;;;6106566;23;20013;-88
2021/12/02 00:39:34;;;;;;;8.48;4.18;;;10.60;99.90;;;;;;6131950;23;20428;-86
2021/12/02 00:42:00;;;;;;;7.30;3.63;;;10.50;99.90;;;;;;6129291;23;20045;-87
2021/12/02 00:44:28;;;;;;;8.93;4.25;;;10.60;99.90;;;;;;6131988;23;20370;-88
2021/12/02 00:46:55;;;;;;;7.40;3.35;;;10.60;99.90;;;;;;6132378;23;20002;-87
2021/12/02 00:49:20;;;;;;;7.32;3.42;;;10.60;99.90;;;;;;6132436;23;20333;-85
2021/12/02 00:51:52;;;;;;;8.02;3.65;;;10.50;99.90;;;;;;6106007;23;20006;-88
2021/12/02 00:54:19;;;;;;;9.33;3.90;;;10.50;99.90;;;;;;6134697;23;20002;-88
2021/12/02 00:56:44;;;;;;;10.50;3.75;;;10.50;99.90;;;;;;6103656;23;20305;-87
2021/12/02 00:59:10;;;;;;;9.10;3.78;;;10.50;99.90;;;;;;6128205;23;20013;-88
2021/12/02 01:01:38;;;;;;;10.07;3.92;;;10.50;99.90;;;;;;6129992;23;20025;-88
2021/12/02 01:04:08;;;;;;;9.00;3.40;;;10.50;99.90;;;;;;6128256;23;20040;-87
2021/12/02 01:06:34;;;;;;;8.93;3.55;;;10.50;99.90;;;;;;6128050;23;20048;-87
2021/12/02 01:09:00;;;;;;;9.60;3.85;;;10.50;99.90;;;;;;6127690;23;20560;-88
2021/12/02 01:11:26;;;;;;;16.23;3.92;;;10.50;99.90;;;;;;6128879;23;20008;-88
2021/12/02 01:13:52;;;;;;;11.65;3.53;;;10.50;99.90;;;;;;6107781;23;20037;-88
2021/12/02 01:16:19;;;;;;;11.77;3.42;;;10.50;99.90;;;;;;6109219;23;20009;-88
2021/12/02 01:18:45;;;;;;;8.43;3.22;;;10.60;99.90;;;;;;6136734;23;19997;-88
2021/12/02 01:21:23;;;;;;;9.88;3.45;;;10.60;99.90;;;;;;6109214;23;20338;-89
2021/12/02 01:23:56;;;;;;;9.27;3.25;;;10.60;99.90;;;;;;6110967;23;20005;-89
2021/12/02 01:26:22;;;;;;;10.48;3.00;;;10.60;99.90;;;;;;6110181;23;20014;-88
2021/12/02 01:28:50;;;;;;;7.45;3.00;;;10.60;99.90;;;;;;6133941;23;20001;-87
2021/12/02 01:31:16;;;;;;;9.10;2.90;;;10.70;99.90;;;;;;6104123;23;20010;-87
2021/12/02 01:33:45;;;;;;;11.10;3.17;;;10.70;99.90;;;;;;6129591;23;20021;-87
2021/12/02 01:36:12;;;;;;;10.65;2.83;;;10.60;99.90;;;;;;6128726;23;20026;-87
2021/12/02 01:38:38;;;;;;;11.60;4.32;;;10.60;99.90;;;;;;6101086;23;20097;-86
2021/12/02 01:41:04;;;;;;;14.57;4.00;;;10.60;99.90;;;;;;6127206;23;20030;-85
2021/12/02 01:43:49;;;;;;;7.90;3.35;;;10.60;99.90;;;;;;6127123;23;20029;-86
2021/12/02 01:46:17;;;;;;;9.75;3.40;;;10.60;99.90;;;;;;6101654;23;20005;-87
2021/12/02 01:48:48;;;;;;;15.85;3.60;;;10.60;99.90;;;;;;6126844;23;20013;-86
2021/12/02 01:51:17;;;;;;;9.32;3.38;;;10.60;99.90;;;;;;6127787;23;20021;-87
2021/12/02 01:53:42;;;;;;;10.98;3.15;;;10.60;99.90;;;;;;6101499;23;20012;-88
2021/12/02 01:56:14;;;;;;;7.50;3.60;;;10.60;99.90;;;;;;6127951;23;19998;-87
2021/12/02 01:58:49;;;;;;;8.50;3.00;;;10.60;99.90;;;;;;6127704;23;20343;-87
2021/12/02 02:01:24;;;;;;;10.57;3.80;;;10.60;99.90;;;;;;6128001;23;20053;-88
2021/12/02 02:03:51;;;;;;;10.15;4.10;;;10.60;99.90;;;;;;6128173;23;20382;-85
2021/12/02 02:06:36;;;;;;;15.52;3.67;;;10.60;99.90;;;;;;6127581;23;19998;-86
2021/12/02 02:09:03;;;;;;;10.05;3.63;;;10.60;99.90;;;;;;6128887;23;20105;-88
2021/12/02 02:11:30;;;;;;;9.85;3.35;;;10.60;99.90;;;;;;6128614;23;20453;-87
2021/12/02 02:13:57;;;;;;;8.80;3.38;;;10.60;99.90;;;;;;6128266;23;20006;-86
2021/12/02 02:16:24;;;;;;;7.78;3.13;;;10.60;99.90;;;;;;6101529;23;20398;-86
2021/12/02 02:18:50;;;;;;;9.65;2.78;;;10.60;99.90;;;;;;6101749;23;20018;-86
2021/12/02 02:21:19;;;;;;;13.23;3.22;;;10.60;99.90;;;;;;6126307;23;20005;-85
2021/12/02 02:23:56;;;;;;;11.95;3.05;;;10.60;99.90;;;;;;6126415;23;20009;-86
2021/12/02 02:26:27;;;;;;;11.35;3.15;;;10.60;99.90;;;;;;6126345;23;20014;-85
2021/12/02 02:28:54;;;;;;;6.97;2.63;;;10.60;99.90;;;;;;6100063;23;20002;-86
2021/12/02 02:31:21;;;;;;;8.98;3.00;;;10.60;99.90;;;;;;6130593;23;20002;-87
2021/12/02 02:33:51;;;;;;;6.85;2.63;;;10.60;99.90;;;;;;6130507;23;20004;-86
2021/12/02 02:36:20;;;;;;;8.10;2.38;;;10.60;99.90;;;;;;6130668;23;20585;-86
2021/12/02 02:38:55;;;;;;;7.70;2.70;;;10.60;99.90;;;;;;6102247;23;20100;-88
2021/12/02 02:41:27;;;;;;;7.15;2.45;;;10.70;99.90;;;;;;6126902;23;20005;-87
2021/12/02 02:43:57;;;;;;;10.27;2.50;;;10.70;99.90;;;;;;6127388;23;20009;-86
2021/12/02 02:46:25;;;;;;;5.55;2.20;;;10.60;99.90;;;;;;6126169;23;20002;-85
2021/12/02 02:48:52;;;;;;;10.77;2.33;;;10.60;99.90;;;;;;6126263;23;20085;-87
2021/12/02 02:51:18;;;;;;;6.68;2.40;;;10.70;99.90;;;;;;6126734;23;20002;-87
2021/12/02 02:53:47;;;;;;;9.50;2.33;;;10.70;99.90;;;;;;6126618;23;20053;-83
2021/12/02 02:56:17;;;;;;;6.75;2.22;;;10.70;99.90;;;;;;6126718;23;20256;-86
2021/12/02 03:01:35;;;;;;;10.35;2.67;;;10.70;99.90;;;;;;6131507;23;20006;-88
2021/12/02 03:07:06;;;;;;;11.02;2.35;;;10.80;99.90;;;;;;6126979;23;20009;-83
2021/12/02 03:12:12;;;;;;;7.28;2.20;;;10.80;99.90;;;;;;6131833;23;20064;-86
2021/12/02 03:17:07;;;;;;;9.50;2.95;;;10.80;99.90;;;;;;6126915;23;20065;-83
2021/12/02 03:19:34;;;;;;;6.93;2.88;;;10.70;99.90;;;;;;6125321;23;20009;-81
2021/12/02 03:22:00;;;;;;;5.55;2.45;;;10.70;99.90;;;;;;6125245;23;19994;-83
2021/12/02 03:24:26;;;;;;;8.75;2.65;;;10.70;99.90;;;;;;6125165;23;20006;-82
2021/12/02 03:26:51;;;;;;;9.75;2.58;;;10.70;99.90;;;;;;6100136;23;20464;-86
2021/12/02 03:29:17;;;;;;;6.82;2.10;;;10.80;99.90;;;;;;6128589;23;20030;-86
2021/12/02 03:31:43;;;;;;;11.57;3.05;;;10.80;99.90;;;;;;6129543;23;20616;-85
2021/12/02 03:34:09;;;;;;;12.02;3.95;;;10.70;99.90;;;;;;6128804;23;20009;-85
2021/12/02 03:36:36;;;;;;;10.60;4.20;;;10.40;99.90;;;;;;6126202;23;19998;-84
2021/12/02 03:39:07;;;;;;;18.27;6.45;;;10.30;99.90;;;;;;6125446;23;20442;-83
2021/12/02 03:41:34;;;;;;;16.83;4.97;;;10.30;99.90;;;;;;6125220;23;20089;-83
2021/12/02 03:43:59;;;;;;;14.32;5.32;;;10.30;99.90;;;;;;6126720;23;20030;-85
2021/12/02 03:46:26;;;;;;;25.45;6.93;;;10.40;99.90;;;;;;6126677;23;20002;-85
2021/12/02 03:48:53;;;;;;;15.40;5.18;;;10.40;99.90;;;;;;6127064;23;20002;-85
2021/12/02 03:51:19;;;;;;;16.85;5.07;;;10.40;99.90;;;;;;6128067;23;20086;-85
2021/12/02 03:53:46;;;;;;;20.27;5.43;;;10.40;99.90;;;;;;6126466;23;20084;-84
2021/12/02 03:56:13;;;;;;;13.55;5.15;;;10.40;99.90;;;;;;6126043;23;20374;-84
2021/12/02 03:58:41;;;;;;;13.65;5.75;;;10.40;99.90;;;;;;6100080;23;20017;-83
2021/12/02 04:01:08;;;;;;;12.60;5.28;;;10.50;99.90;;;;;;6100466;23;20013;-84
2021/12/02 04:03:34;;;;;;;19.95;4.50;;;10.50;99.90;;;;;;6100111;23;20012;-83
2021/12/02 04:06:00;;;;;;;9.27;3.38;;;10.50;99.90;;;;;;6127120;23;20001;-84
2021/12/02 04:08:41;;;;;;;12.70;3.60;;;10.50;99.90;;;;;;6101453;23;20009;-85
2021/12/02 04:16:21;;;;;;;12.43;3.78;;;10.50;99.90;;;;;;6128842;23;20085;-84
2021/12/02 04:18:48;;;;;;;14.63;4.00;;;10.50;99.90;;;;;;6102269;23;20014;-84
2021/12/02 04:21:14;;;;;;;22.75;4.68;;;10.50;99.90;;;;;;6130073;23;20010;-86
2021/12/02 04:23:40;;;;;;;12.48;3.92;;;10.50;99.90;;;;;;6129508;23;20002;-83
2021/12/02 04:26:06;;;;;;;15.00;3.67;;;10.50;99.90;;;;;;6127971;23;20069;-85
2021/12/02 04:28:32;;;;;;;20.27;4.05;;;10.60;99.90;;;;;;6102382;23;20024;-85
2021/12/02 04:30:58;;;;;;;15.02;4.35;;;10.70;99.90;;;;;;6103096;23;20009;-85
2021/12/02 04:33:24;;;;;;;15.07;3.30;;;10.70;99.90;;;;;;6104219;23;20006;-86
2021/12/02 04:35:52;;;;;;;12.95;3.78;;;10.70;99.90;;;;;;6103222;23;20002;-85
2021/12/02 04:38:18;;;;;;;22.15;5.18;;;10.80;99.90;;;;;;6128262;23;20041;-83
2021/12/02 04:40:44;;;;;;;13.73;2.70;;;10.80;99.90;;;;;;6127351;23;20393;-85
2021/12/02 04:43:10;;;;;;;13.40;4.22;;;10.80;99.90;;;;;;6101431;23;20006;-84
2021/12/02 04:45:36;;;;;;;36.55;8.82;;;10.80;99.90;;;;;;6125899;23;20002;-82
2021/12/02 04:48:02;;;;;;;16.75;3.25;;;10.80;99.90;;;;;;6126509;23;20008;-82
2021/12/02 04:50:28;;;;;;;14.20;3.13;;;10.70;99.90;;;;;;6125678;23;20020;-83
2021/12/02 04:52:54;;;;;;;13.10;3.65;;;10.70;99.90;;;;;;6126274;23;20006;-82
2021/12/02 04:55:20;;;;;;;14.82;2.97;;;10.70;99.90;;;;;;6099454;23;20627;-82
2021/12/02 04:57:47;;;;;;;12.40;2.78;;;10.80;99.90;;;;;;6124916;23;20006;-81
2021/12/02 05:00:14;;;;;;;20.88;3.13;;;10.80;99.90;;;;;;6125737;23;19994;-82
2021/12/02 05:02:41;;;;;;;19.23;4.15;;;10.70;99.90;;;;;;6126120;23;20002;-82
2021/12/02 05:05:08;;;;;;;20.42;6.22;;;10.60;99.90;;;;;;6100143;23;20009;-82
2021/12/02 05:07:34;;;;;;;24.98;8.65;;;10.60;99.90;;;;;;6126260;23;20089;-83
2021/12/02 05:10:00;;;;;;;40.83;8.15;;;10.50;99.90;;;;;;6126937;23;20054;-85
2021/12/02 05:12:25;;;;;;;36.17;3.88;;;10.40;99.90;;;;;;6126937;23;20203;-85
2021/12/02 05:14:51;;;;;;;28.13;3.60;;;10.40;99.90;;;;;;6101260;23;20002;-85
2021/12/02 05:17:17;;;;;;;16.10;3.25;;;10.50;99.90;;;;;;6127749;23;20006;-82
2021/12/02 05:19:43;;;;;;;23.67;4.22;;;10.50;99.90;;;;;;6127947;23;20481;-85
2021/12/02 05:22:09;;;;;;;28.25;3.58;;;10.60;99.90;;;;;;6101082;23;20002;-85
2021/12/02 05:24:35;;;;;;;18.50;3.53;;;10.60;99.90;;;;;;6128057;23;20006;-85
2021/12/02 05:27:01;;;;;;;21.42;3.63;;;10.70;99.90;;;;;;6127234;23;20089;-85
2021/12/02 05:29:26;;;;;;;19.13;3.75;;;10.70;99.90;;;;;;6102688;23;20426;-85
2021/12/02 05:31:52;;;;;;;20.50;3.80;;;10.70;99.90;;;;;;6102482;23;20430;-86
2021/12/02 05:34:18;;;;;;;15.70;3.58;;;10.80;99.90;;;;;;6127372;23;20331;-85
2021/12/02 05:36:43;;;;;;;13.02;3.25;;;10.70;99.90;;;;;;6127395;23;20006;-86
2021/12/02 05:39:09;;;;;;;19.17;4.60;;;10.80;99.90;;;;;;6127459;23;20010;-84
2021/12/02 05:41:35;;;;;;;17.85;4.38;;;10.80;99.90;;;;;;6126222;23;20383;-84
2021/12/02 05:44:01;;;;;;;12.50;3.60;;;10.80;99.90;;;;;;6125869;23;20009;-84
2021/12/02 05:46:27;;;;;;;13.10;3.55;;;10.90;99.90;;;;;;6126335;23;19998;-85
2021/12/02 05:48:53;;;;;;;14.80;4.57;;;11.00;99.90;;;;;;6126448;23;20081;-84
2021/12/02 05:51:19;;;;;;;22.38;4.75;;;11.00;99.90;;;;;;6126098;23;20077;-84
2021/12/02 05:53:44;;;;;;;17.52;4.10;;;11.00;99.90;;;;;;6101960;23;20006;-84
2021/12/02 05:56:10;;;;;;;11.75;3.67;;;10.90;99.90;;;;;;6125997;23;19998;-85
2021/12/02 05:58:36;;;;;;;15.75;3.40;;;10.90;99.90;;;;;;6125848;23;20014;-82
2021/12/02 06:01:02;;;;;;;18.08;3.55;;;10.90;99.90;;;;;;6100403;23;20002;-86
2021/12/02 06:03:27;;;;;;;12.27;3.50;;;10.90;99.90;;;;;;6130139;23;20002;-88
2021/12/02 06:05:53;;;;;;;18.20;4.00;;;10.90;99.90;;;;;;6101699;23;20001;-84
2021/12/02 06:08:19;;;;;;;12.75;3.72;;;10.80;99.90;;;;;;6126917;23;20002;-83
2021/12/02 06:10:45;;;;;;;15.68;3.80;;;10.80;99.90;;;;;;6126475;23;20034;-84
2021/12/02 06:13:10;;;;;;;12.52;3.53;;;10.70;99.90;;;;;;6126904;23;20001;-86
2021/12/02 06:15:36;;;;;;;13.57;4.25;;;10.70;99.90;;;;;;6126161;23;19998;-84
2021/12/02 06:18:02;;;;;;;16.48;4.32;;;10.70;99.90;;;;;;6099388;23;20021;-84
2021/12/02 06:20:28;;;;;;;16.67;4.25;;;10.70;99.90;;;;;;6126637;23;20028;-85
2021/12/02 06:22:54;;;;;;;21.27;4.80;;;10.60;99.90;;;;;;6126345;23;20045;-85
2021/12/02 06:27:47;;;;;;;13.80;4.57;;;10.70;99.90;;;;;;6127353;23;20010;-85
2021/12/02 06:30:15;;;;;;;23.58;6.03;;;10.70;99.90;;;;;;6126367;23;20002;-84
2021/12/02 06:32:40;;;;;;;19.05;6.30;;;10.60;99.90;;;;;;6101027;23;20005;-85
2021/12/02 06:35:07;;;;;;;22.30;7.40;;;10.70;99.90;;;;;;6126821;23;20017;-85
2021/12/02 06:37:33;;;;;;;24.05;8.13;;;10.70;99.90;;;;;;6126965;23;19998;-85
2021/12/02 06:39:59;;;;;;;20.67;8.13;;;10.70;99.90;;;;;;6100086;23;20014;-87
2021/12/02 06:42:24;;;;;;;22.73;9.18;;;10.70;99.90;;;;;;6126413;23;20009;-86
2021/12/02 06:44:50;;;;;;;32.03;14.15;;;10.70;99.90;;;;;;6127524;23;20065;-86
2021/12/02 06:47:16;;;;;;;39.42;30.95;;;10.70;99.90;;;;;;6127143;23;20002;-87
2021/12/02 06:49:42;;;;;;;45.30;33.80;;;10.60;99.90;;;;;;6127116;23;20445;-85
2021/12/02 06:52:11;;;;;;;41.08;27.98;;;10.60;99.90;;;;;;6130977;23;20125;-87
2021/12/02 06:54:37;;;;;;;46.90;35.22;;;10.60;99.90;;;;;;6131536;23;20140;-87
2021/12/02 06:57:03;;;;;;;50.63;35.88;;;10.60;99.90;;;;;;6128282;23;20021;-85
2021/12/02 06:59:29;;;;;;;31.27;26.55;;;10.60;99.90;;;;;;6101050;23;20040;-87
2021/12/02 07:01:55;;;;;;;44.10;29.25;;;10.60;99.90;;;;;;6128089;23;20673;-88
2021/12/02 07:04:21;;;;;;;35.92;20.88;;;10.60;99.90;;;;;;6128542;23;20006;-86
2021/12/02 07:06:47;;;;;;;33.78;28.10;;;10.60;99.90;;;;;;6125118;23;20009;-86
2021/12/02 07:09:13;;;;;;;53.75;42.42;;;10.50;99.90;;;;;;6125839;23;19998;-87
2021/12/02 07:11:39;;;;;;;50.28;34.97;;;10.40;99.90;;;;;;6129145;23;20080;-87
2021/12/02 07:14:12;;;;;;;45.30;28.40;;;10.30;99.90;;;;;;6128254;23;20010;-88
2021/12/02 07:16:39;;;;;;;39.95;30.90;;;10.20;99.90;;;;;;6126100;23;19998;-88
2021/12/02 07:19:09;;;;;;;48.17;31.15;;;10.20;99.90;;;;;;6125677;23;20017;-87
2021/12/02 07:21:38;;;;;;;44.72;33.75;;;10.10;99.90;;;;;;6129113;23;20120;-87
2021/12/02 07:24:05;;;;;;;42.63;33.03;;;10.10;99.90;;;;;;6130450;23;20010;-89
2021/12/02 07:26:35;;;;;;;40.03;33.08;;;10.10;99.90;;;;;;6129927;23;20092;-89
2021/12/02 07:29:01;;;;;;;39.85;29.65;;;10.00;99.90;;;;;;6131804;23;20005;-89
2021/12/02 07:31:30;;;;;;;47.03;36.10;;;9.90;99.90;;;;;;6129026;23;20005;-89
2021/12/02 07:33:58;;;;;;;46.25;32.42;;;9.90;99.90;;;;;;6101458;23;20006;-88
2021/12/02 07:36:25;;;;;;;40.70;33.63;;;9.90;99.90;;;;;;6126615;23;20006;-88
2021/12/02 07:38:51;;;;;;;32.72;23.88;;;9.90;99.90;;;;;;6100086;23;20100;-86
2021/12/02 07:41:16;;;;;;;31.83;21.08;;;9.90;99.90;;;;;;6126676;23;20006;-87
2021/12/02 07:43:43;;;;;;;32.55;21.55;;;9.80;99.90;;;;;;6124096;23;20006;-81
2021/12/02 07:46:09;;;;;;;25.10;18.25;;;9.80;99.90;;;;;;6124169;23;20329;-84
2021/12/02 07:48:36;;;;;;;26.90;19.65;;;9.80;99.90;;;;;;6123945;23;20001;-83
2021/12/02 07:51:07;;;;;;;22.33;19.85;;;9.70;99.90;;;;;;6124997;23;20005;-85
2021/12/02 07:53:33;;;;;;;24.48;17.83;;;9.80;99.90;;;;;;6126475;23;20006;-83
2021/12/02 07:56:03;;;;;;;20.70;14.55;;;9.80;99.90;;;;;;6125595;23;20337;-84
2021/12/02 07:58:30;;;;;;;18.67;12.10;;;9.80;99.90;;;;;;6125868;23;20013;-84
2021/12/02 08:01:00;;;;;;;17.17;11.43;;;9.70;99.90;;;;;;6099506;23;20438;-83
2021/12/02 08:03:26;;;;;;;17.95;13.80;;;9.80;99.90;;;;;;6125418;23;20002;-84
2021/12/02 08:05:53;;;;;;;21.88;12.70;;;9.80;99.90;;;;;;6125603;23;20422;-84
2021/12/02 08:08:19;;;;;;;21.38;11.55;;;9.80;99.90;;;;;;6125871;23;20002;-83
2021/12/02 08:10:45;;;;;;;19.73;9.77;;;9.80;99.90;;;;;;6125809;23;20472;-84
2021/12/02 08:13:13;;;;;;;19.27;10.85;;;9.80;99.90;;;;;;6126014;23;20002;-84
2021/12/02 08:15:40;;;;;;;17.88;10.35;;;9.70;99.90;;;;;;6125548;23;20013;-84
2021/12/02 08:18:06;;;;;;;10.40;7.05;;;9.70;99.90;;;;;;6125137;23;20016;-85
2021/12/02 08:20:32;;;;;;;16.75;6.93;;;9.70;99.90;;;;;;6125875;23;20081;-85
2021/12/02 08:22:59;;;;;;;9.15;4.43;;;9.70;99.90;;;;;;6126564;23;20002;-85
2021/12/02 08:25:26;;;;;;;12.70;4.50;;;9.60;99.90;;;;;;6127015;23;20461;-85
2021/12/02 08:27:53;;;;;;;9.25;4.13;;;9.60;99.90;;;;;;6126230;23;20033;-85
2021/12/02 08:30:23;;;;;;;6.90;3.67;;;9.60;99.90;;;;;;6125641;23;20093;-85
2021/12/02 08:32:49;;;;;;;11.80;4.10;;;9.60;99.90;;;;;;6125832;23;20049;-85
2021/12/02 08:35:16;;;;;;;10.95;4.32;;;9.70;99.90;;;;;;6099804;23;20430;-86
2021/12/02 08:37:46;;;;;;;6.57;3.47;;;9.70;99.90;;;;;;6125760;23;20002;-84
2021/12/02 08:40:19;;;;;;;6.43;3.47;;;9.60;99.90;;;;;;6099609;23;20010;-84
2021/12/02 08:42:46;;;;;;;9.40;3.40;;;9.60;99.90;;;;;;6125835;23;20080;-85
2021/12/02 08:45:13;;;;;;;4.13;3.25;;;9.70;99.90;;;;;;6125320;23;20434;-84
2021/12/02 08:47:45;;;;;;;8.45;3.90;;;9.70;99.90;;;;;;6125348;23;20065;-86
2021/12/02 08:50:17;;;;;;;8.70;4.05;;;9.80;99.90;;;;;;6125862;23;19998;-84
2021/12/02 08:52:44;;;;;;;8.82;3.58;;;9.80;99.90;;;;;;6125637;23;20010;-85
2021/12/02 08:55:12;;;;;;;5.93;3.08;;;9.80;99.90;;;;;;6125423;23;20002;-84
2021/12/02 08:57:38;;;;;;;9.10;3.92;;;9.80;99.90;;;;;;6125555;23;20018;-84
2021/12/02 09:00:07;;;;;;;8.60;4.00;;;9.80;99.90;;;;;;6125277;23;20002;-85
2021/12/02 09:02:33;;;;;;;7.65;3.97;;;9.80;99.90;;;;;;6124693;23;20472;-86
2021/12/02 09:04:59;;;;;;;6.28;3.95;;;9.80;99.90;;;;;;6125758;23;19998;-86
2021/12/02 09:07:25;;;;;;;8.23;5.20;;;9.80;99.90;;;;;;6126191;23;20034;-84
2021/12/02 09:09:51;;;;;;;4.40;3.67;;;9.80;99.90;;;;;;6126289;23;20484;-84
2021/12/02 09:12:16;;;;;;;9.57;4.22;;;9.80;99.90;;;;;;6125376;23;20002;-83
2021/12/02 09:14:42;;;;;;;10.73;4.53;;;9.80;99.90;;;;;;6099520;23;20006;-82
2021/12/02 09:17:08;;;;;;;10.95;4.15;;;9.80;99.90;;;;;;6125641;23;20081;-83
2021/12/02 09:19:34;;;;;;;10.68;4.35;;;9.80;99.90;;;;;;6125219;23;20014;-83
2021/12/02 09:22:00;;;;;;;5.85;4.15;;;9.90;99.90;;;;;;6126184;23;19998;-83
2021/12/02 09:24:26;;;;;;;9.77;4.15;;;9.90;99.90;;;;;;6125359;23;20052;-82
2021/12/02 09:26:53;;;;;;;6.70;4.22;;;10.00;99.90;;;;;;6127149;23;20069;-84
2021/12/02 09:29:20;;;;;;;9.68;3.80;;;10.00;99.90;;;;;;6125248;23;20555;-82
2021/12/02 09:31:48;;;;;;;7.00;4.07;;;10.10;99.90;;;;;;6126309;23;20085;-82
2021/12/02 09:34:15;;;;;;;6.60;3.03;;;10.10;99.90;;;;;;6124982;23;20413;-83
2021/12/02 09:36:41;;;;;;;5.72;3.67;;;10.20;99.90;;;;;;6125735;23;20347;-83
2021/12/02 09:39:10;;;;;;;8.20;3.60;;;10.30;99.90;;;;;;6124722;23;20017;-82
2021/12/02 09:41:37;;;;;;;4.88;3.20;;;10.40;99.90;;;;;;6124932;23;20006;-86
2021/12/02 09:44:04;;;;;;;6.00;2.90;;;10.50;99.90;;;;;;6121409;23;20465;-85
2021/12/02 09:46:30;;;;;;;4.90;3.08;;;10.60;99.90;;;;;;6122502;23;20002;-85
2021/12/02 09:48:57;;;;;;;6.68;3.47;;;10.60;99.90;;;;;;6121409;23;20081;-85
2021/12/02 09:51:31;;;;;;;5.00;3.10;;;10.70;99.90;;;;;;6122225;23;20671;-86
2021/12/02 09:54:06;;;;;;;4.13;3.17;;;10.60;99.90;;;;;;6121835;23;20012;-83
2021/12/02 09:56:34;;;;;;;8.05;3.13;;;10.70;99.90;;;;;;6121887;23;20005;-83
2021/12/02 09:59:23;;;;;;;4.65;2.58;;;10.70;99.90;;;;;;6121703;23;20061;-83
2021/12/02 10:01:53;;;;;;;7.60;2.70;;;10.80;99.90;;;;;;6122926;23;20073;-83
2021/12/02 10:04:21;;;;;;;5.30;2.88;;;10.90;99.90;;;;;;6097231;23;20334;-85
2021/12/02 10:06:47;;;;;;;5.57;3.28;;;10.90;99.90;;;;;;6122196;23;20002;-80
2021/12/02 10:09:22;;;;;;;7.72;4.55;;;10.90;99.90;;;;;;6121940;23;20002;-82
2021/12/02 10:11:55;;;;;;;7.22;4.40;;;11.00;99.90;;;;;;6122127;23;20048;-81
2021/12/02 10:14:26;;;;;;;8.15;4.68;;;11.00;99.90;;;;;;6121613;23;19998;-82
2021/12/02 10:17:08;;;;;;;8.27;5.82;;;11.00;99.90;;;;;;6095739;23;20457;-81
2021/12/02 10:19:34;;;;;;;11.65;7.00;;;11.00;99.90;;;;;;6121948;23;20036;-81
2021/12/02 10:22:07;;;;;;;6.85;6.10;;;10.90;99.90;;;;;;6096295;23;20009;-82
2021/12/02 10:24:44;;;;;;;13.02;6.57;;;10.90;99.90;;;;;;6122717;23;20647;-82
2021/12/02 10:27:10;;;;;;;10.63;6.40;;;10.90;99.90;;;;;;6094719;23;20362;-82
2021/12/02 10:29:39;;;;;;;7.85;5.47;;;10.90;99.90;;;;;;6118962;23;20013;-82
2021/12/02 10:32:12;;;;;;;8.48;5.30;;;10.80;99.90;;;;;;6121066;23;20001;-81
2021/12/02 10:34:49;;;;;;;7.53;5.45;;;10.80;99.90;;;;;;6094875;23;20010;-83
2021/12/02 10:37:18;;;;;;;5.72;4.65;;;10.80;99.90;;;;;;6121386;23;20059;-85
2021/12/02 10:40:02;;;;;;;7.82;5.78;;;10.70;99.90;;;;;;6124352;23;20069;-84
2021/12/02 10:42:30;;;;;;;6.65;4.72;;;10.70;99.90;;;;;;6123117;23;20061;-83
2021/12/02 10:44:58;;;;;;;7.70;4.63;;;10.70;99.90;;;;;;6121253;23;20342;-82
2021/12/02 10:47:24;;;;;;;9.88;5.80;;;10.80;99.90;;;;;;6122319;23;20006;-83
2021/12/02 10:49:56;;;;;;;7.65;5.38;;;10.80;99.90;;;;;;6095888;23;20382;-84
2021/12/02 10:52:25;;;;;;;12.70;5.20;;;10.80;99.90;;;;;;6096468;23;20060;-82
2021/12/02 10:55:01;;;;;;;8.82;5.28;;;10.80;99.90;;;;;;6121512;23;20009;-83
2021/12/02 10:57:30;;;;;;;18.45;11.25;;;10.80;99.90;;;;;;6096349;23;20050;-82
2021/12/02 10:59:58;;;;;;;38.45;26.08;;;10.80;99.90;;;;;;6095884;23;20184;-83
2021/12/02 11:02:35;;;;;;;26.42;21.95;;;10.90;99.90;;;;;;6095311;23;20126;-82
2021/12/02 11:05:28;;;;;;;18.52;15.32;;;10.90;99.90;;;;;;6096059;23;20091;-84
2021/12/02 11:08:06;;;;;;;;;;;10.90;99.90;;;;;;6122857;23;20014;-83
2021/12/02 11:10:41;;;;;;;19.17;12.82;;;10.90;99.90;;;;;;6123170;23;19956;-82
2021/12/02 11:13:09;;;;;;;37.85;26.77;;;10.90;99.90;;;;;;6123310;23;20010;-81
2021/12/02 11:15:37;;;;;;;16.00;11.20;;;11.00;99.90;;;;;;6121906;23;20008;-81
2021/12/02 11:18:08;;;;;;;13.88;9.35;;;11.00;99.90;;;;;;6121666;23;20021;-81
2021/12/02 11:20:42;;;;;;;11.90;9.10;;;11.00;99.90;;;;;;6121533;23;20005;-82
2021/12/02 11:23:20;;;;;;;13.85;9.30;;;11.00;99.90;;;;;;6121719;23;20315;-84
2021/12/02 11:25:57;;;;;;;15.00;9.50;;;11.00;99.90;;;;;;6121640;23;20481;-83
2021/12/02 11:28:26;;;;;;;13.38;8.75;;;11.00;99.90;;;;;;6120370;23;20037;-84
2021/12/02 11:30:52;;;;;;;14.43;9.60;;;11.00;99.90;;;;;;6119992;23;20353;-82
2021/12/02 11:33:21;;;;;;;11.63;10.43;;;10.90;99.90;;;;;;6121115;23;20040;-82
2021/12/02 11:35:48;;;;;;;17.92;11.93;;;10.90;99.90;;;;;;6122269;23;20029;-80
2021/12/02 11:38:26;;;;;;;14.50;10.27;;;10.90;99.90;;;;;;6121163;23;20045;-83
2021/12/02 11:40:54;;;;;;;12.23;7.57;;;10.90;99.90;;;;;;6095204;23;20010;-82
2021/12/02 11:43:27;;;;;;;12.13;8.15;;;11.00;99.90;;;;;;6095528;23;20133;-81
2021/12/02 11:45:54;;;;;;;10.60;8.38;;;11.00;99.90;;;;;;6120762;23;20002;-80
2021/12/02 11:48:26;;;;;;;19.65;8.18;;;11.00;99.90;;;;;;6120748;23;20002;-82
2021/12/02 11:51:00;;;;;;;13.25;8.23;;;10.90;99.90;;;;;;6094677;23;20009;-81
2021/12/02 11:53:26;;;;;;;9.27;8.30;;;10.90;99.90;;;;;;6120741;23;20061;-80
2021/12/02 11:55:54;;;;;;;9.18;7.18;;;10.90;99.90;;;;;;6094827;23;20634;-82
2021/12/02 11:58:20;;;;;;;8.43;6.32;;;10.90;99.90;;;;;;6120624;23;20018;-81
2021/12/02 12:00:47;;;;;;;9.00;8.02;;;10.90;99.90;;;;;;6118284;23;20002;-82
2021/12/02 12:03:15;;;;;;;9.23;6.10;;;10.80;99.90;;;;;;6091406;23;20064;-81
2021/12/02 12:05:46;;;;;;;7.43;4.82;;;10.80;99.90;;;;;;6092739;23;20010;-83
2021/12/02 12:08:35;;;;;;;6.90;4.50;;;10.70;99.90;;;;;;6118883;23;20016;-83
2021/12/02 12:11:25;;;;;;;6.18;3.85;;;10.60;99.90;;;;;;6118924;23;20006;-83
2021/12/02 12:13:57;;;;;;;7.95;4.32;;;10.70;99.90;;;;;;6094630;23;20021;-82
2021/12/02 12:16:38;;;;;;;8.38;5.22;;;10.70;99.90;;;;;;6122947;23;20002;-84
2021/12/02 12:19:27;;;;;;;8.07;5.35;;;10.80;99.90;;;;;;6122220;23;20024;-85
2021/12/02 12:22:02;;;;;;;7.03;5.15;;;10.80;99.90;;;;;;6121161;23;20049;-84
2021/12/02 12:24:46;;;;;;;9.18;4.72;;;10.90;99.90;;;;;;6095992;23;20017;-83
2021/12/02 12:27:27;;;;;;;7.22;4.80;;;10.90;99.90;;;;;;6120395;23;20029;-84
2021/12/02 12:30:19;;;;;;;5.80;3.42;;;11.00;99.90;;;;;;6121570;23;20024;-84
2021/12/02 12:38:25;;;;;;;9.48;5.07;;;11.00;99.90;;;;;;6129349;23;20196;-83
2021/12/02 12:41:11;;;;;;;7.78;6.05;;;11.00;99.90;;;;;;6127604;23;20103;-82
2021/12/02 12:43:44;;;;;;;7.75;5.43;;;11.00;99.90;;;;;;6101532;23;20085;-85
2021/12/02 12:46:17;;;;;;;15.63;7.00;;;11.00;99.90;;;;;;6122854;23;20061;-84
2021/12/02 12:48:43;;;;;;;11.75;5.70;;;11.10;99.90;;;;;;6123067;23;20010;-85
2021/12/02 12:51:26;;;;;;;12.95;5.32;;;11.10;99.90;;;;;;6096839;23;20056;-84
2021/12/02 12:53:54;;;;;;;16.23;6.43;;;11.10;99.90;;;;;;6123829;23;20010;-84
2021/12/02 12:56:40;;;;;;;11.00;6.07;;;11.10;99.90;;;;;;6122920;23;20002;-84
2021/12/02 12:59:15;;;;;;;12.10;7.10;;;11.00;99.90;;;;;;6124408;23;20074;-84
2021/12/02 13:01:54;;;;;;;8.43;5.97;;;11.00;99.90;;;;;;6123186;23;20033;-83
2021/12/02 13:04:24;;;;;;;7.65;4.43;;;10.90;99.90;;;;;;6122392;23;20085;-85
2021/12/02 13:06:56;;;;;;;4.65;4.00;;;10.90;99.90;;;;;;6122536;23;20100;-82
2021/12/02 13:09:45;;;;;;;5.53;3.53;;;10.90;99.90;;;;;;6121425;23;19998;-82
2021/12/02 13:12:13;;;;;;;5.35;3.70;;;10.70;99.90;;;;;;6122430;23;20009;-81
2021/12/02 13:14:42;;;;;;;5.47;3.75;;;10.70;99.90;;;;;;6096382;23;20030;-81
2021/12/02 13:17:36;;;;;;;5.22;3.00;;;10.70;99.90;;;;;;6122141;23;20006;-82
2021/12/02 13:20:33;;;;;;;5.40;3.50;;;10.60;99.90;;;;;;6122432;23;20096;-81